Rices Landing, Pennsylvania
Current Conditions -  °F | °C
As of 2:15 AM on Sunday 23 Nov 2014 (Local Time) from KAFJ Reporting Station
Overcast Overcast  
Wind Chill: 50°   Ceiling: 11000
Heat Index: 50°   Visibility: 10mi
Dew Point: 27°   Wind: 6mph
Humidity: 40%   Direction: 220°SW
Pressure: 30.12"   Gusts: NA
Location:  39.95°N, 80°W
Report Text: KAFJ 230715Z 22005KT 10SM SCT080 OVC110 10/M03 A3012 RMK AO1
Loading
Personal Weather Stations






























Interactive Weather Map New forecast layout! Learn more

10-Day Weather Forecast

Advertisements
Track Severe Weather on mobile